Terminal Aerodrome Forecast
Issued by NWS North Platte, NE

Home | Current Version | Previous Version | Text Only | Print | Product List | Glossary On
Versions: 1 2 3 4 5 6 7 8 9 10 11 12 13 14 15 16 17 18 19 20 21 22 23 24 25
000
FTUS43 KLBF 271521 AAD
TAFVTN
TAF AMD
KVTN 271521Z 2715/2812 19007KT P6SM BKN005
     FM271700 17007KT P6SM SCT040
     FM271900 16010KT P6SM SCT250
     FM280000 13012KT P6SM BKN250
     FM280900 13010KT P6SM BKN100=

USA.gov is the U.S. government's official web portal to all federal, state and local government web resources and services.